Cincinnati, Ohio
Traffic Map
Current Weather Conditions
Cincinnati, Ohio
Few Clouds
Few Clouds
-3°
Feels Like: -3°
Wind Chill: -3° Ceiling: Unl
Heat Index: -3° Visibility: 10mi
Dew Point: -9° Wind: 3mph
Humidity: 63% Direction: 20° (NNE)
Pressure: 30.39in Gusts: 0mph
Raw Report DataKLUK 030353Z AUTO 02003KT 10SM FEW120 M03/M09 A3039 RMK AO2 SLP297 T10281089
Traffic Incident Summary
Active as of:
Severity:
Category:
InformationThere was an issue retrieving the traffic information for this location. Please try a different location or try again shortly.
Advertisements
Track Severe Weather on mobile